Tomstown, Pennsylvania
Current Conditions -  °F | °C
As of 7:53 PM on Thursday 27 Nov 2014 (Local Time) from KRYT Reporting Station
Overcast Overcast  
Wind Chill: 35°   Ceiling: 5000
Heat Index: 35°   Visibility: 9mi
Dew Point: 27°   Wind: 3mph
Humidity: 72%   Direction: NA
Pressure: 30.09"   Gusts: NA
Location:  39.7777°N, 77.5693°W
Report Text: KRYT 280053Z AUTO VRB03KT 9SM SCT042 OVC050 02/M03 A3009 RMK AO2 SLP203 T00171028 $
Loading
Personal Weather Stations






























Interactive Weather Map New forecast layout! Learn more

10-Day Weather Forecast

Advertisements
Track Severe Weather on mobile